sensor_id;sensor_type;location;lat;lon;timestamp;pressure;altitude;pressure_sealevel;temperature;humidity
66560;BME280;53413;49.878;8.142;2024-01-10T00:01:12;101100.28;;;-3.82;56.56
66560;BME280;53413;49.878;8.142;2024-01-10T00:03:37;101096.06;;;-3.82;56.45
66560;BME280;53413;49.878;8.142;2024-01-10T00:06:02;101091.81;;;-3.81;56.59
66560;BME280;53413;49.878;8.142;2024-01-10T00:08:28;101090.13;;;-3.81;56.72
66560;BME280;53413;49.878;8.142;2024-01-10T00:10:53;101086.69;;;-3.81;56.65
66560;BME280;53413;49.878;8.142;2024-01-10T00:13:20;101083.25;;;-3.82;55.81
66560;BME280;53413;49.878;8.142;2024-01-10T00:15:46;101076.38;;;-3.83;55.81
66560;BME280;53413;49.878;8.142;2024-01-10T00:18:11;101075.56;;;-3.82;56.37
66560;BME280;53413;49.878;8.142;2024-01-10T00:20:36;101073.00;;;-3.82;56.65
66560;BME280;53413;49.878;8.142;2024-01-10T00:23:02;101066.16;;;-3.83;56.14
66560;BME280;53413;49.878;8.142;2024-01-10T00:25:27;101075.56;;;-3.82;55.33
66560;BME280;53413;49.878;8.142;2024-01-10T00:27:53;101065.38;;;-3.80;54.99
66560;BME280;53413;49.878;8.142;2024-01-10T00:30:18;101070.66;;;-3.76;55.17
66560;BME280;53413;49.878;8.142;2024-01-10T00:32:43;101062.16;;;-3.75;54.84
66560;BME280;53413;49.878;8.142;2024-01-10T00:35:09;101072.53;;;-3.72;55.32
66560;BME280;53413;49.878;8.142;2024-01-10T00:37:35;101077.66;;;-3.72;54.74
66560;BME280;53413;49.878;8.142;2024-01-10T00:40:01;101074.16;;;-3.74;55.15
66560;BME280;53413;49.878;8.142;2024-01-10T00:42:26;101072.41;;;-3.75;55.33
66560;BME280;53413;49.878;8.142;2024-01-10T00:44:52;101070.66;;;-3.76;55.23
66560;BME280;53413;49.878;8.142;2024-01-10T00:47:17;101071.44;;;-3.78;55.61
66560;BME280;53413;49.878;8.142;2024-01-10T00:49:42;101069.81;;;-3.76;55.78
66560;BME280;53413;49.878;8.142;2024-01-10T00:52:08;101066.28;;;-3.80;55.73
66560;BME280;53413;49.878;8.142;2024-01-10T00:54:33;101073.88;;;-3.81;56.67
66560;BME280;53413;49.878;8.142;2024-01-10T00:56:58;101076.31;;;-3.84;56.68
66560;BME280;53413;49.878;8.142;2024-01-10T00:59:24;101068.47;;;-3.89;56.79
66560;BME280;53413;49.878;8.142;2024-01-10T01:01:49;101068.47;;;-3.89;56.88
66560;BME280;53413;49.878;8.142;2024-01-10T01:04:14;101062.44;;;-3.91;56.58
66560;BME280;53413;49.878;8.142;2024-01-10T01:06:40;101070.22;;;-3.88;56.52
66560;BME280;53413;49.878;8.142;2024-01-10T01:09:05;101071.84;;;-3.90;56.79
66560;BME280;53413;49.878;8.142;2024-01-10T01:11:30;101071.75;;;-3.93;56.80
66560;BME280;53413;49.878;8.142;2024-01-10T01:13:56;101080.91;;;-3.98;57.34
66560;BME280;53413;49.878;8.142;2024-01-10T01:16:21;101070.69;;;-3.98;57.97
66560;BME280;53413;49.878;8.142;2024-01-10T01:18:46;101064.53;;;-4.04;58.20
66560;BME280;53413;49.878;8.142;2024-01-10T01:21:12;101072.88;;;-4.08;58.48
66560;BME280;53413;49.878;8.142;2024-01-10T01:23:37;101074.50;;;-4.10;57.92
66560;BME280;53413;49.878;8.142;2024-01-10T01:26:03;101075.31;;;-4.11;57.58
66560;BME280;53413;49.878;8.142;2024-01-10T01:28:29;101071.91;;;-4.11;57.33
66560;BME280;53413;49.878;8.142;2024-01-10T01:30:55;101067.59;;;-4.12;57.56
66560;BME280;53413;49.878;8.142;2024-01-10T01:33:20;101062.59;;;-4.09;56.97
66560;BME280;53413;49.878;8.142;2024-01-10T01:35:46;101061.03;;;-4.06;56.97
66560;BME280;53413;49.878;8.142;2024-01-10T01:38:11;101076.47;;;-4.03;57.11
66560;BME280;53413;49.878;8.142;2024-01-10T01:40:36;101071.38;;;-4.03;57.36
66560;BME280;53413;49.878;8.142;2024-01-10T01:43:18;101072.22;;;-4.04;57.12
66560;BME280;53413;49.878;8.142;2024-01-10T01:45:43;101072.31;;;-4.00;57.14
66560;BME280;53413;49.878;8.142;2024-01-10T01:48:09;101079.97;;;-4.00;57.34
66560;BME280;53413;49.878;8.142;2024-01-10T01:50:34;101070.56;;;-4.02;57.26
66560;BME280;53413;49.878;8.142;2024-01-10T01:53:00;101078.22;;;-4.02;56.91
66560;BME280;53413;49.878;8.142;2024-01-10T01:55:25;101073.94;;;-4.03;57.23
66560;BME280;53413;49.878;8.142;2024-01-10T01:57:50;101073.09;;;-4.02;57.09
66560;BME280;53413;49.878;8.142;2024-01-10T02:00:16;101063.69;;;-4.03;57.12
66560;BME280;53413;49.878;8.142;2024-01-10T02:02:43;101069.75;;;-4.00;57.29
66560;BME280;53413;49.878;8.142;2024-01-10T02:05:09;101062.78;;;-4.05;57.62
66560;BME280;53413;49.878;8.142;2024-01-10T02:07:34;101064.41;;;-4.07;56.99
66560;BME280;53413;49.878;8.142;2024-01-10T02:10:00;101062.78;;;-4.05;56.89
66560;BME280;53413;49.878;8.142;2024-01-10T02:12:25;101064.53;;;-4.04;56.92
66560;BME280;53413;49.878;8.142;2024-01-10T02:14:50;101062.00;;;-4.02;57.04
66560;BME280;53413;49.878;8.142;2024-01-10T02:17:15;101064.63;;;-4.00;56.95
66560;BME280;53413;49.878;8.142;2024-01-10T02:19:41;101071.31;;;-4.04;57.66
66560;BME280;53413;49.878;8.142;2024-01-10T02:22:06;101062.66;;;-4.08;59.08
66560;BME280;53413;49.878;8.142;2024-01-10T02:24:31;101059.16;;;-4.10;58.61
66560;BME280;53413;49.878;8.142;2024-01-10T02:26:57;101052.13;;;-4.15;57.89
66560;BME280;53413;49.878;8.142;2024-01-10T02:29:22;101052.13;;;-4.15;57.67
66560;BME280;53413;49.878;8.142;2024-01-10T02:31:49;101051.19;;;-4.18;57.67
66560;BME280;53413;49.878;8.142;2024-01-10T02:34:14;101058.13;;;-4.15;57.39
66560;BME280;53413;49.878;8.142;2024-01-10T02:36:39;101055.59;;;-4.13;57.99
66560;BME280;53413;49.878;8.142;2024-01-10T02:39:05;101054.66;;;-4.15;59.00
66560;BME280;53413;49.878;8.142;2024-01-10T02:41:30;101051.94;;;-4.20;59.81
66560;BME280;53413;49.878;8.142;2024-01-10T02:43:56;101060.19;;;-4.27;59.51
66560;BME280;53413;49.878;8.142;2024-01-10T02:46:24;101055.00;;;-4.29;59.97
66560;BME280;53413;49.878;8.142;2024-01-10T02:48:53;101052.28;;;-4.34;59.97
66560;BME280;53413;49.878;8.142;2024-01-10T02:51:18;101046.47;;;-4.29;60.33
66560;BME280;53413;49.878;8.142;2024-01-10T02:53:43;101052.41;;;-4.30;61.25
66560;BME280;53413;49.878;8.142;2024-01-10T02:56:09;101051.47;;;-4.33;60.76
66560;BME280;53413;49.878;8.142;2024-01-10T02:58:34;101049.84;;;-4.30;61.23
66560;BME280;53413;49.878;8.142;2024-01-10T03:00:59;101046.38;;;-4.31;61.15
66560;BME280;53413;49.878;8.142;2024-01-10T03:03:26;101049.88;;;-4.29;61.17
66560;BME280;53413;49.878;8.142;2024-01-10T03:05:51;101052.41;;;-4.30;61.37
66560;BME280;53413;49.878;8.142;2024-01-10T03:08:17;101040.59;;;-4.27;61.63
66560;BME280;53413;49.878;8.142;2024-01-10T03:10:42;101041.53;;;-4.25;61.48
66560;BME280;53413;49.878;8.142;2024-01-10T03:13:07;101044.94;;;-4.24;61.99
66560;BME280;53413;49.878;8.142;2024-01-10T03:15:33;101043.19;;;-4.25;62.38
66560;BME280;53413;49.878;8.142;2024-01-10T03:17:58;101034.72;;;-4.24;62.21
66560;BME280;53413;49.878;8.142;2024-01-10T03:20:23;101031.34;;;-4.23;62.18
66560;BME280;53413;49.878;8.142;2024-01-10T03:22:48;101040.53;;;-4.28;62.89
66560;BME280;53413;49.878;8.142;2024-01-10T03:25:14;101024.00;;;-4.37;63.15
66560;BME280;53413;49.878;8.142;2024-01-10T03:27:39;101034.13;;;-4.40;63.12
66560;BME280;53413;49.878;8.142;2024-01-10T03:30:05;101035.84;;;-4.39;63.41
66560;BME280;53413;49.878;8.142;2024-01-10T03:32:31;101024.13;;;-4.34;63.09
66560;BME280;53413;49.878;8.142;2024-01-10T03:34:57;101029.91;;;-4.38;62.90
66560;BME280;53413;49.878;8.142;2024-01-10T03:37:22;101031.13;;;-4.29;62.74
66560;BME280;53413;49.878;8.142;2024-01-10T03:39:47;101029.59;;;-4.24;62.70
66560;BME280;53413;49.878;8.142;2024-01-10T03:42:13;101025.22;;;-4.27;62.89
66560;BME280;53413;49.878;8.142;2024-01-10T03:44:40;101024.25;;;-4.30;62.15
66560;BME280;53413;49.878;8.142;2024-01-10T03:47:06;101019.34;;;-4.24;62.63
66560;BME280;53413;49.878;8.142;2024-01-10T03:49:31;101014.94;;;-4.28;62.52
66560;BME280;53413;49.878;8.142;2024-01-10T03:51:56;101011.63;;;-4.26;62.75
66560;BME280;53413;49.878;8.142;2024-01-10T03:54:22;101016.69;;;-4.27;62.96
66560;BME280;53413;49.878;8.142;2024-01-10T03:56:47;101011.59;;;-4.27;62.93
66560;BME280;53413;49.878;8.142;2024-01-10T03:59:12;101019.47;;;-4.21;62.88
66560;BME280;53413;49.878;8.142;2024-01-10T04:01:38;101017.97;;;-4.16;62.58
66560;BME280;53413;49.878;8.142;2024-01-10T04:04:04;101026.69;;;-4.11;62.78
66560;BME280;53413;49.878;8.142;2024-01-10T04:06:30;101022.97;;;-4.19;62.82
66560;BME280;53413;49.878;8.142;2024-01-10T04:08:55;101009.38;;;-4.18;63.28
66560;BME280;53413;49.878;8.142;2024-01-10T04:11:20;101011.91;;;-4.18;63.58
66560;BME280;53413;49.878;8.142;2024-01-10T04:13:46;101014.47;;;-4.18;63.72
66560;BME280;53413;49.878;8.142;2024-01-10T04:16:11;101016.31;;;-4.14;63.28
66560;BME280;53413;49.878;8.142;2024-01-10T04:18:37;101020.88;;;-4.07;63.19
66560;BME280;53413;49.878;8.142;2024-01-10T04:21:02;101014.94;;;-4.06;63.93
66560;BME280;53413;49.878;8.142;2024-01-10T04:23:28;101011.75;;;-4.00;63.94
66560;BME280;53413;49.878;8.142;2024-01-10T04:25:53;101020.56;;;-3.92;63.84
66560;BME280;53413;49.878;8.142;2024-01-10T04:28:19;101024.88;;;-3.91;63.88
66560;BME280;53413;49.878;8.142;2024-01-10T04:30:44;101032.78;;;-3.84;64.11
66560;BME280;53413;49.878;8.142;2024-01-10T04:33:10;101023.53;;;-3.81;63.93
66560;BME280;53413;49.878;8.142;2024-01-10T04:35:38;101028.06;;;-3.74;63.83
66560;BME280;53413;49.878;8.142;2024-01-10T04:38:03;101023.06;;;-3.71;63.58
66560;BME280;53413;49.878;8.142;2024-01-10T04:40:29;101024.06;;;-3.65;63.77
66560;BME280;53413;49.878;8.142;2024-01-10T04:42:54;101029.28;;;-3.64;63.00
66560;BME280;53413;49.878;8.142;2024-01-10T04:45:20;101024.31;;;-3.59;63.09
66560;BME280;53413;49.878;8.142;2024-01-10T04:47:45;101027.00;;;-3.56;63.35
66560;BME280;53413;49.878;8.142;2024-01-10T04:50:11;101027.16;;;-3.51;63.28
66560;BME280;53413;49.878;8.142;2024-01-10T04:52:36;101019.63;;;-3.47;62.99
66560;BME280;53413;49.878;8.142;2024-01-10T04:55:01;101019.56;;;-3.48;63.08
66560;BME280;53413;49.878;8.142;2024-01-10T04:57:28;101021.25;;;-3.49;63.42
66560;BME280;53413;49.878;8.142;2024-01-10T04:59:53;101025.44;;;-3.51;63.26
66560;BME280;53413;49.878;8.142;2024-01-10T05:02:19;101017.66;;;-3.54;63.27
66560;BME280;53413;49.878;8.142;2024-01-10T05:04:44;101018.75;;;-3.47;63.12
66560;BME280;53413;49.878;8.142;2024-01-10T05:07:10;101024.88;;;-3.44;63.15
66560;BME280;53413;49.878;8.142;2024-01-10T05:09:36;101031.00;;;-3.38;62.88
66560;BME280;53413;49.878;8.142;2024-01-10T05:12:02;101025.78;;;-3.42;63.33
66560;BME280;53413;49.878;8.142;2024-01-10T05:14:27;101026.25;;;-3.52;63.23
66560;BME280;53413;49.878;8.142;2024-01-10T05:16:53;101025.97;;;-3.60;63.79
66560;BME280;53413;49.878;8.142;2024-01-10T05:19:18;101030.13;;;-3.63;63.63
66560;BME280;53413;49.878;8.142;2024-01-10T05:21:44;101030.91;;;-3.66;63.97
66560;BME280;53413;49.878;8.142;2024-01-10T05:24:09;101031.75;;;-3.65;64.46
66560;BME280;53413;49.878;8.142;2024-01-10T05:26:35;101028.31;;;-3.67;64.17
66560;BME280;53413;49.878;8.142;2024-01-10T05:29:00;101028.19;;;-3.71;64.16
66560;BME280;53413;49.878;8.142;2024-01-10T05:31:26;101033.59;;;-3.63;64.40
66560;BME280;53413;49.878;8.142;2024-01-10T05:33:51;101025.25;;;-3.57;64.10
66560;BME280;53413;49.878;8.142;2024-01-10T05:36:21;101021.97;;;-3.53;64.08
66560;BME280;53413;49.878;8.142;2024-01-10T05:38:47;101021.09;;;-3.53;64.40
66560;BME280;53413;49.878;8.142;2024-01-10T05:41:13;101024.34;;;-3.58;64.52
66560;BME280;53413;49.878;8.142;2024-01-10T05:43:39;101021.75;;;-3.59;64.99
66560;BME280;53413;49.878;8.142;2024-01-10T05:46:05;101016.38;;;-3.65;64.63
66560;BME280;53413;49.878;8.142;2024-01-10T05:48:30;101016.06;;;-3.75;65.58
66560;BME280;53413;49.878;8.142;2024-01-10T05:50:55;101020.34;;;-3.75;65.19
66560;BME280;53413;49.878;8.142;2024-01-10T05:53:23;101018.47;;;-3.79;65.27
66560;BME280;53413;49.878;8.142;2024-01-10T05:55:49;101016.56;;;-3.85;65.79
66560;BME280;53413;49.878;8.142;2024-01-10T05:58:14;101015.69;;;-3.85;65.36
66560;BME280;53413;49.878;8.142;2024-01-10T06:00:39;101012.94;;;-3.90;65.53
66560;BME280;53413;49.878;8.142;2024-01-10T06:03:05;101014.59;;;-3.92;65.43
66560;BME280;53413;49.878;8.142;2024-01-10T06:05:30;101014.59;;;-3.92;65.60
66560;BME280;53413;49.878;8.142;2024-01-10T06:07:57;101013.66;;;-3.94;65.76
66560;BME280;53413;49.878;8.142;2024-01-10T06:10:22;101015.28;;;-3.96;65.59
66560;BME280;53413;49.878;8.142;2024-01-10T06:12:47;101011.66;;;-4.02;66.14
66560;BME280;53413;49.878;8.142;2024-01-10T06:15:13;101024.09;;;-4.12;66.54
66560;BME280;53413;49.878;8.142;2024-01-10T06:17:39;101022.84;;;-4.22;66.39
66560;BME280;53413;49.878;8.142;2024-01-10T06:20:05;101017.59;;;-4.25;66.59
66560;BME280;53413;49.878;8.142;2024-01-10T06:22:32;101021.72;;;-4.29;66.35
66560;BME280;53413;49.878;8.142;2024-01-10T06:24:57;101023.19;;;-4.36;66.94
66560;BME280;53413;49.878;8.142;2024-01-10T06:27:22;101036.88;;;-4.35;66.85
66560;BME280;53413;49.878;8.142;2024-01-10T06:29:48;101029.25;;;-4.34;66.87
66560;BME280;53413;49.878;8.142;2024-01-10T06:32:13;101029.38;;;-4.30;66.88
66560;BME280;53413;49.878;8.142;2024-01-10T06:34:39;101030.00;;;-4.36;67.20
66560;BME280;53413;49.878;8.142;2024-01-10T06:37:05;101029.00;;;-4.40;66.06
66560;BME280;53413;49.878;8.142;2024-01-10T06:39:32;101030.50;;;-4.45;66.00
66560;BME280;53413;49.878;8.142;2024-01-10T06:41:58;101026.25;;;-4.44;66.09
66560;BME280;53413;49.878;8.142;2024-01-10T06:44:23;101020.44;;;-4.40;66.28
66560;BME280;53413;49.878;8.142;2024-01-10T06:46:48;101027.31;;;-4.39;65.64
66560;BME280;53413;49.878;8.142;2024-01-10T06:49:14;101018.78;;;-4.40;65.53
66560;BME280;53413;49.878;8.142;2024-01-10T06:51:39;101023.91;;;-4.40;65.76
66560;BME280;53413;49.878;8.142;2024-01-10T06:54:05;101025.88;;;-4.33;65.43
66560;BME280;53413;49.878;8.142;2024-01-10T06:56:31;101015.97;;;-4.23;64.92
66560;BME280;53413;49.878;8.142;2024-01-10T06:58:58;101022.09;;;-4.20;64.66
66560;BME280;53413;49.878;8.142;2024-01-10T07:01:23;101027.63;;;-4.09;64.58
66560;BME280;53413;49.878;8.142;2024-01-10T07:03:49;101024.25;;;-4.08;64.86
66560;BME280;53413;49.878;8.142;2024-01-10T07:06:15;101030.31;;;-4.06;65.81
66560;BME280;53413;49.878;8.142;2024-01-10T07:08:41;101031.81;;;-4.11;64.70
66560;BME280;53413;49.878;8.142;2024-01-10T07:11:10;101034.97;;;-4.18;64.62
66560;BME280;53413;49.878;8.142;2024-01-10T07:13:36;101032.41;;;-4.18;64.82
66560;BME280;53413;49.878;8.142;2024-01-10T07:16:02;101029.38;;;-4.08;65.53
66560;BME280;53413;49.878;8.142;2024-01-10T07:18:30;101030.41;;;-4.03;64.48
66560;BME280;53413;49.878;8.142;2024-01-10T07:20:56;101040.72;;;-4.01;64.28
66560;BME280;53413;49.878;8.142;2024-01-10T07:23:21;101034.53;;;-4.06;64.16
66560;BME280;53413;49.878;8.142;2024-01-10T07:25:48;101042.16;;;-4.08;64.10
66560;BME280;53413;49.878;8.142;2024-01-10T07:28:15;101043.91;;;-4.07;63.74
66560;BME280;53413;49.878;8.142;2024-01-10T07:30:40;101047.47;;;-4.03;64.49
66560;BME280;53413;49.878;8.142;2024-01-10T07:33:05;101050.19;;;-3.98;64.29
66560;BME280;53413;49.878;8.142;2024-01-10T07:35:32;101053.25;;;-3.84;64.58
66560;BME280;53413;49.878;8.142;2024-01-10T07:37:58;101062.34;;;-3.70;63.69
66560;BME280;53413;49.878;8.142;2024-01-10T07:40:23;101056.69;;;-3.61;63.21
66560;BME280;53413;49.878;8.142;2024-01-10T07:42:49;101059.03;;;-3.67;63.58
66560;BME280;53413;49.878;8.142;2024-01-10T07:45:14;101066.13;;;-3.60;63.97
66560;BME280;53413;49.878;8.142;2024-01-10T07:47:39;101068.31;;;-3.47;63.74
66560;BME280;53413;49.878;8.142;2024-01-10T07:50:10;101069.13;;;-3.48;62.93
66560;BME280;53413;49.878;8.142;2024-01-10T07:52:36;101060.00;;;-3.40;62.65
66560;BME280;53413;49.878;8.142;2024-01-10T07:55:02;101067.22;;;-3.29;62.25
66560;BME280;53413;49.878;8.142;2024-01-10T07:57:30;101072.88;;;-3.14;61.84
66560;BME280;53413;49.878;8.142;2024-01-10T07:59:55;101073.31;;;-3.01;61.80
66560;BME280;53413;49.878;8.142;2024-01-10T08:02:21;101067.91;;;-2.85;61.29
66560;BME280;53413;49.878;8.142;2024-01-10T08:04:46;101075.38;;;-2.65;61.48
66560;BME280;53413;49.878;8.142;2024-01-10T08:07:11;101081.09;;;-2.47;60.68
66560;BME280;53413;49.878;8.142;2024-01-10T08:09:37;101084.13;;;-2.33;60.41
66560;BME280;53413;49.878;8.142;2024-01-10T08:12:03;101085.31;;;-2.21;60.37
66560;BME280;53413;49.878;8.142;2024-01-10T08:14:29;101087.31;;;-2.12;59.90
66560;BME280;53413;49.878;8.142;2024-01-10T08:16:54;101087.63;;;-2.02;59.66
66560;BME280;53413;49.878;8.142;2024-01-10T08:19:23;101088.78;;;-1.92;59.62
66560;BME280;53413;49.878;8.142;2024-01-10T08:21:48;101086.34;;;-1.87;58.82
66560;BME280;53413;49.878;8.142;2024-01-10T08:24:15;101090.53;;;-1.91;58.46
66560;BME280;53413;49.878;8.142;2024-01-10T08:26:40;101098.50;;;-1.81;58.55
66560;BME280;53413;49.878;8.142;2024-01-10T08:29:06;101097.78;;;-1.77;58.41
66560;BME280;53413;49.878;8.142;2024-01-10T08:31:31;101094.41;;;-1.76;58.47
66560;BME280;53413;49.878;8.142;2024-01-10T08:33:57;101085.34;;;-1.63;58.15
66560;BME280;53413;49.878;8.142;2024-01-10T08:36:22;101091.63;;;-1.53;57.91
66560;BME280;53413;49.878;8.142;2024-01-10T08:38:50;101093.53;;;-1.46;57.79
66560;BME280;53413;49.878;8.142;2024-01-10T08:41:15;101098.38;;;-1.27;57.30
66560;BME280;53413;49.878;8.142;2024-01-10T08:43:40;101099.66;;;-1.11;56.81
66560;BME280;53413;49.878;8.142;2024-01-10T08:46:07;101093.84;;;-1.03;56.66
66560;BME280;53413;49.878;8.142;2024-01-10T08:48:33;101092.72;;;-0.81;56.26
66560;BME280;53413;49.878;8.142;2024-01-10T08:50:58;101090.47;;;-0.69;55.78
66560;BME280;53413;49.878;8.142;2024-01-10T08:53:23;101089.16;;;-0.51;55.73
66560;BME280;53413;49.878;8.142;2024-01-10T08:55:49;101089.31;;;-0.45;55.80
66560;BME280;53413;49.878;8.142;2024-01-10T08:58:15;101089.47;;;-0.39;55.70
66560;BME280;53413;49.878;8.142;2024-01-10T09:00:40;101088.38;;;-0.49;55.16
66560;BME280;53413;49.878;8.142;2024-01-10T09:03:05;101103.75;;;-0.52;55.74
66560;BME280;53413;49.878;8.142;2024-01-10T09:05:32;101098.50;;;-0.55;55.33
66560;BME280;53413;49.878;8.142;2024-01-10T09:07:57;101106.31;;;-0.52;55.65
66560;BME280;53413;49.878;8.142;2024-01-10T09:10:23;101107.69;;;-0.29;55.43
66560;BME280;53413;49.878;8.142;2024-01-10T09:12:48;101097.66;;;-0.19;54.96
66560;BME280;53413;49.878;8.142;2024-01-10T09:15:14;101103.94;;;-0.07;54.64
66560;BME280;53413;49.878;8.142;2024-01-10T09:17:43;101106.78;;;0.04;54.71
66560;BME280;53413;49.878;8.142;2024-01-10T09:20:10;101103.38;;;0.46;54.21
66560;BME280;53413;49.878;8.142;2024-01-10T09:22:36;101102.81;;;0.61;53.05
66560;BME280;53413;49.878;8.142;2024-01-10T09:25:02;101111.53;;;0.68;53.21
66560;BME280;53413;49.878;8.142;2024-01-10T09:27:33;101117.59;;;0.70;53.21
66560;BME280;53413;49.878;8.142;2024-01-10T09:30:02;101104.94;;;0.82;52.95
66560;BME280;53413;49.878;8.142;2024-01-10T09:32:28;101104.13;;;0.83;53.08
66560;BME280;53413;49.878;8.142;2024-01-10T09:34:55;101108.28;;;0.76;52.78
66560;BME280;53413;49.878;8.142;2024-01-10T09:37:20;101098.53;;;0.61;52.74
66560;BME280;53413;49.878;8.142;2024-01-10T09:39:46;101105.25;;;0.53;52.81
66560;BME280;53413;49.878;8.142;2024-01-10T09:42:11;101106.00;;;0.48;53.23
66560;BME280;53413;49.878;8.142;2024-01-10T09:44:36;101108.03;;;0.64;53.00
66560;BME280;53413;49.878;8.142;2024-01-10T09:47:02;101109.66;;;0.59;52.78
66560;BME280;53413;49.878;8.142;2024-01-10T09:49:27;101103.34;;;0.44;52.76
66560;BME280;53413;49.878;8.142;2024-01-10T09:51:58;101102.44;;;0.42;53.50
66560;BME280;53413;49.878;8.142;2024-01-10T09:54:29;101104.88;;;0.36;52.89
66560;BME280;53413;49.878;8.142;2024-01-10T09:56:55;101105.56;;;0.27;52.88
66560;BME280;53413;49.878;8.142;2024-01-10T09:59:21;101100.25;;;0.21;52.83
66560;BME280;53413;49.878;8.142;2024-01-10T10:01:46;101096.03;;;0.23;52.58
66560;BME280;53413;49.878;8.142;2024-01-10T10:04:12;101099.25;;;0.13;53.21
66560;BME280;53413;49.878;8.142;2024-01-10T10:06:38;101101.94;;;0.19;53.61
66560;BME280;53413;49.878;8.142;2024-01-10T10:09:03;101102.56;;;0.09;53.64
66560;BME280;53413;49.878;8.142;2024-01-10T10:11:29;101095.94;;;0.19;53.36
66560;BME280;53413;49.878;8.142;2024-01-10T10:13:55;101103.75;;;0.23;53.11
66560;BME280;53413;49.878;8.142;2024-01-10T10:16:25;101099.44;;;0.22;53.42
66560;BME280;53413;49.878;8.142;2024-01-10T10:18:51;101099.03;;;0.43;53.47
66560;BME280;53413;49.878;8.142;2024-01-10T10:21:18;101101.69;;;0.47;52.63
66560;BME280;53413;49.878;8.142;2024-01-10T10:23:57;101097.78;;;0.67;52.63
66560;BME280;53413;49.878;8.142;2024-01-10T10:26:23;101105.03;;;0.85;52.13
66560;BME280;53413;49.878;8.142;2024-01-10T10:28:49;101096.69;;;0.99;52.13
66560;BME280;53413;49.878;8.142;2024-01-10T10:31:19;101098.50;;;1.04;52.15
66560;BME280;53413;49.878;8.142;2024-01-10T10:33:46;101101.16;;;1.07;51.94
66560;BME280;53413;49.878;8.142;2024-01-10T10:36:13;101099.72;;;1.27;51.62
66560;BME280;53413;49.878;8.142;2024-01-10T10:38:39;101114.31;;;1.23;51.87
66560;BME280;53413;49.878;8.142;2024-01-10T10:41:05;101111.22;;;1.43;51.65
66560;BME280;53413;49.878;8.142;2024-01-10T10:43:38;101105.00;;;1.31;51.26
66560;BME280;53413;49.878;8.142;2024-01-10T10:46:05;101102.13;;;1.14;51.13
66560;BME280;53413;49.878;8.142;2024-01-10T10:48:35;101103.00;;;1.16;51.30
66560;BME280;53413;49.878;8.142;2024-01-10T10:53:27;101095.31;;;1.72;50.97
66560;BME280;53413;49.878;8.142;2024-01-10T10:55:53;101090.69;;;2.07;50.26
66560;BME280;53413;49.878;8.142;2024-01-10T10:58:20;101093.97;;;2.63;49.30
66560;BME280;53413;49.878;8.142;2024-01-10T11:00:47;101084.94;;;3.02;48.03
66560;BME280;53413;49.878;8.142;2024-01-10T11:03:13;101081.78;;;3.37;47.89
66560;BME280;53413;49.878;8.142;2024-01-10T11:05:40;101084.72;;;3.78;47.05
66560;BME280;53413;49.878;8.142;2024-01-10T11:08:08;101083.72;;;3.60;46.72
66560;BME280;53413;49.878;8.142;2024-01-10T11:10:38;101081.69;;;3.25;47.12
66560;BME280;53413;49.878;8.142;2024-01-10T11:21:18;101089.59;;;2.59;47.48
66560;BME280;53413;49.878;8.142;2024-01-10T11:23:56;101086.94;;;2.51;48.09
66560;BME280;53413;49.878;8.142;2024-01-10T11:26:23;101075.25;;;2.13;48.97
66560;BME280;53413;49.878;8.142;2024-01-10T11:28:48;101068.56;;;2.29;49.01
66560;BME280;53413;49.878;8.142;2024-01-10T11:31:14;101068.69;;;2.40;49.05
66560;BME280;53413;49.878;8.142;2024-01-10T11:33:41;101068.00;;;2.52;48.36
66560;BME280;53413;49.878;8.142;2024-01-10T11:41:12;101065.88;;;2.22;48.56
66560;BME280;53413;49.878;8.142;2024-01-10T11:43:38;101065.88;;;2.22;48.26
66560;BME280;53413;49.878;8.142;2024-01-10T11:46:05;101066.53;;;2.05;48.67
66560;BME280;53413;49.878;8.142;2024-01-10T11:48:31;101063.66;;;1.87;49.42
66560;BME280;53413;49.878;8.142;2024-01-10T11:50:58;101066.09;;;1.74;49.32
66560;BME280;53413;49.878;8.142;2024-01-10T11:53:45;101051.31;;;1.65;49.35
66560;BME280;53413;49.878;8.142;2024-01-10T11:56:13;101052.41;;;1.81;49.53
66560;BME280;53413;49.878;8.142;2024-01-10T11:59:02;101059.44;;;1.92;49.26
66560;BME280;53413;49.878;8.142;2024-01-10T12:01:31;101057.69;;;1.91;48.60
66560;BME280;53413;49.878;8.142;2024-01-10T12:03:58;101054.53;;;2.10;48.69
66560;BME280;53413;49.878;8.142;2024-01-10T12:06:24;101059.09;;;2.28;48.12
66560;BME280;53413;49.878;8.142;2024-01-10T12:08:50;101037.50;;;2.28;48.33
66560;BME280;53413;49.878;8.142;2024-01-10T12:11:16;101041.03;;;2.36;48.50
66560;BME280;53413;49.878;8.142;2024-01-10T12:13:42;101048.75;;;2.30;48.62
66560;BME280;53413;49.878;8.142;2024-01-10T12:16:07;101050.53;;;2.36;49.18
66560;BME280;53413;49.878;8.142;2024-01-10T12:18:33;101047.94;;;2.34;48.59
66560;BME280;53413;49.878;8.142;2024-01-10T12:20:59;101058.19;;;2.28;48.56
66560;BME280;53413;49.878;8.142;2024-01-10T12:23:24;101043.19;;;2.02;49.25
66560;BME280;53413;49.878;8.142;2024-01-10T12:25:56;101044.78;;;1.91;49.47
66560;BME280;53413;49.878;8.142;2024-01-10T12:28:21;101042.91;;;1.79;49.73
66560;BME280;53413;49.878;8.142;2024-01-10T12:30:47;101040.06;;;1.62;50.33
66560;BME280;53413;49.878;8.142;2024-01-10T12:33:12;101046.03;;;1.59;50.40
66560;BME280;53413;49.878;8.142;2024-01-10T12:35:38;101036.66;;;1.64;50.12
66560;BME280;53413;49.878;8.142;2024-01-10T12:38:06;101041.00;;;1.68;50.23
66560;BME280;53413;49.878;8.142;2024-01-10T12:40:32;101041.78;;;1.63;49.81
66560;BME280;53413;49.878;8.142;2024-01-10T12:43:04;101038.31;;;1.61;49.69
66560;BME280;53413;49.878;8.142;2024-01-10T12:45:30;101041.56;;;1.49;50.12
66560;BME280;53413;49.878;8.142;2024-01-10T12:47:57;101039.81;;;1.46;50.00
66560;BME280;53413;49.878;8.142;2024-01-10T12:50:22;101039.75;;;1.43;50.29
66560;BME280;53413;49.878;8.142;2024-01-10T12:52:50;101037.09;;;1.38;50.27
66560;BME280;53413;49.878;8.142;2024-01-10T12:55:15;101032.78;;;1.36;50.89
66560;BME280;53413;49.878;8.142;2024-01-10T12:57:43;101036.91;;;1.26;50.72
66560;BME280;53413;49.878;8.142;2024-01-10T13:00:09;101034.25;;;1.20;50.74
66560;BME280;53413;49.878;8.142;2024-01-10T13:02:35;101037.72;;;1.23;51.11